Time;durP1;ratioP1;P1;durP2;ratioP2;P2;SDS_P1;SDS_P2;PMS_P1;PMS_P2;Temp;Humidity;BMP_temperature;BMP_pressure;BME280_temperature;BME280_humidity;BME280_pressure;Samples;Min_cycle;Max_cycle;Signal;HPM_P1;HPM_P2
2021/07/17 00:00:31;;;;;;;4.83;2.93;;;16.50;99.90;;;;;;2072528;28;20639;-75
2021/07/17 00:01:35;;;;;;;6.53;4.00;;;16.50;99.90;;;;;;2073286;28;20198;-75
2021/07/17 00:02:35;;;;;;;6.23;3.73;;;16.50;99.90;;;;;;2057209;28;20179;-75
2021/07/17 00:03:36;;;;;;;3.17;2.93;;;16.50;99.90;;;;;;2057276;28;20514;-75
2021/07/17 00:04:37;;;;;;;3.97;3.60;;;16.50;99.90;;;;;;2065059;28;20182;-76
2021/07/17 00:05:37;;;;;;;4.00;3.40;;;16.50;99.90;;;;;;2073387;28;20178;-76
2021/07/17 00:06:38;;;;;;;6.67;4.37;;;16.50;99.90;;;;;;2073174;28;20209;-76
2021/07/17 00:07:40;;;;;;;4.20;3.77;;;16.50;99.90;;;;;;2073110;28;20220;-77
2021/07/17 00:08:41;;;;;;;10.07;4.73;;;16.50;99.90;;;;;;2056534;28;20693;-76
2021/07/17 00:09:42;;;;;;;7.53;5.03;;;16.50;99.90;;;;;;2056397;28;20423;-76
2021/07/17 00:10:48;;;;;;;6.90;4.67;;;16.50;99.90;;;;;;2063586;28;20450;-75
2021/07/17 00:11:49;;;;;;;4.03;3.37;;;16.60;99.90;;;;;;2057381;28;20258;-76
2021/07/17 00:12:51;;;;;;;3.67;2.93;;;16.60;99.90;;;;;;2065168;28;20457;-75
2021/07/17 00:13:52;;;;;;;7.33;3.20;;;16.60;99.90;;;;;;2057217;28;20423;-76
2021/07/17 00:14:52;;;;;;;5.37;4.77;;;16.60;99.90;;;;;;2048841;29;20603;-76
2021/07/17 00:15:54;;;;;;;4.03;3.03;;;16.60;99.90;;;;;;2057189;28;20298;-76
2021/07/17 00:16:55;;;;;;;4.07;3.77;;;16.70;99.90;;;;;;2065281;28;20185;-76
2021/07/17 00:17:56;;;;;;;4.13;3.80;;;16.60;99.90;;;;;;2073425;28;20420;-76
2021/07/17 00:18:57;;;;;;;4.07;3.67;;;16.70;99.90;;;;;;2073080;28;20216;-76
2021/07/17 00:19:58;;;;;;;4.93;3.40;;;16.70;99.90;;;;;;2064959;28;20218;-76
2021/07/17 00:20:58;;;;;;;5.23;3.60;;;16.70;99.90;;;;;;2056860;28;20426;-77
2021/07/17 00:21:59;;;;;;;5.63;4.80;;;16.70;99.90;;;;;;2056484;28;20779;-76
2021/07/17 00:23:00;;;;;;;5.17;4.23;;;16.70;99.90;;;;;;2073100;28;20181;-76
2021/07/17 00:24:02;;;;;;;3.33;3.03;;;16.70;99.90;;;;;;2065131;28;20178;-76
2021/07/17 00:25:11;;;;;;;5.30;3.83;;;16.60;99.90;;;;;;2057120;28;20426;-76
2021/07/17 00:26:11;;;;;;;5.27;3.63;;;16.50;99.90;;;;;;2056875;28;20928;-76
2021/07/17 00:27:12;;;;;;;4.43;4.07;;;16.50;99.90;;;;;;2057087;28;20426;-76
2021/07/17 00:28:14;;;;;;;4.63;3.73;;;16.50;99.90;;;;;;2073354;28;20192;-77
2021/07/17 00:29:14;;;;;;;4.53;3.13;;;16.50;99.90;;;;;;2072976;28;20189;-74
2021/07/17 00:30:17;;;;;;;4.87;4.37;;;16.50;99.90;;;;;;2056687;28;20828;-73
2021/07/17 00:31:18;;;;;;;4.73;4.13;;;16.40;99.90;;;;;;2048763;29;20203;-74
2021/07/17 00:32:19;;;;;;;4.70;3.40;;;16.40;99.90;;;;;;2048952;28;20845;-74
2021/07/17 00:33:20;;;;;;;5.00;4.57;;;16.40;99.90;;;;;;2065628;28;20284;-75
2021/07/17 00:34:20;;;;;;;5.43;3.53;;;16.40;99.90;;;;;;2072872;28;20193;-75
2021/07/17 00:35:21;;;;;;;5.37;3.87;;;16.40;99.90;;;;;;2073084;28;20221;-74
2021/07/17 00:36:22;;;;;;;4.87;4.47;;;16.50;99.90;;;;;;2072863;28;20561;-74
2021/07/17 00:37:22;;;;;;;7.77;4.87;;;16.50;99.90;;;;;;2064967;28;20247;-74
2021/07/17 00:38:23;;;;;;;4.47;4.07;;;16.50;99.90;;;;;;2064926;28;20185;-74
2021/07/17 00:39:24;;;;;;;6.83;4.43;;;16.50;99.90;;;;;;2072984;28;20201;-75
2021/07/17 00:40:24;;;;;;;4.53;4.13;;;16.50;99.90;;;;;;2064702;28;20550;-74
2021/07/17 00:41:25;;;;;;;4.37;4.07;;;16.60;99.90;;;;;;2064765;28;20206;-74
2021/07/17 00:42:26;;;;;;;8.40;5.03;;;16.60;99.90;;;;;;2072809;28;20190;-74
2021/07/17 00:43:27;;;;;;;5.20;4.73;;;16.60;99.90;;;;;;2064933;28;20182;-74
2021/07/17 00:44:27;;;;;;;4.57;4.10;;;16.60;99.90;;;;;;2056797;28;20187;-74
2021/07/17 00:45:28;;;;;;;6.10;4.93;;;16.60;99.90;;;;;;2056907;28;20564;-74
2021/07/17 00:46:31;;;;;;;6.33;3.60;;;16.60;99.90;;;;;;2072969;28;20201;-74
2021/07/17 00:47:35;;;;;;;4.63;3.80;;;16.60;99.90;;;;;;2072606;28;20182;-74
2021/07/17 00:48:38;;;;;;;3.60;3.30;;;16.60;99.90;;;;;;2064834;28;20476;-74
2021/07/17 00:49:39;;;;;;;5.60;4.17;;;16.60;99.90;;;;;;2056810;28;20521;-75
2021/07/17 00:50:40;;;;;;;4.77;4.37;;;16.60;99.90;;;;;;2064574;28;21019;-77
2021/07/17 00:51:40;;;;;;;6.13;5.53;;;16.60;99.90;;;;;;2073073;28;20239;-74
2021/07/17 00:52:41;;;;;;;6.30;4.37;;;16.60;99.90;;;;;;2065436;28;20263;-75
2021/07/17 00:53:42;;;;;;;8.53;4.87;;;16.60;99.90;;;;;;2065530;28;20221;-75
2021/07/17 00:54:45;;;;;;;8.80;4.63;;;16.70;99.90;;;;;;2065240;28;20472;-74
2021/07/17 00:55:49;;;;;;;7.33;4.43;;;16.70;99.90;;;;;;2057324;28;20176;-73
2021/07/17 00:56:52;;;;;;;3.40;3.13;;;16.80;99.90;;;;;;2057378;28;20434;-74
2021/07/17 00:57:55;;;;;;;5.93;4.37;;;16.80;99.90;;;;;;2056907;28;20426;-74
2021/07/17 00:58:58;;;;;;;6.47;4.83;;;16.70;99.90;;;;;;2065074;28;20928;-75
2021/07/17 01:00:12;;;;;;;4.97;4.50;;;16.70;99.90;;;;;;2064341;28;20430;-74
2021/07/17 01:01:13;;;;;;;4.03;3.63;;;16.70;99.90;;;;;;2066425;28;20891;-75
2021/07/17 01:02:17;;;;;;;6.80;4.87;;;16.70;99.90;;;;;;2064928;28;20417;-75
2021/07/17 01:03:21;;;;;;;5.10;4.03;;;16.80;99.90;;;;;;2065084;28;20453;-75
2021/07/17 01:04:23;;;;;;;7.00;4.23;;;16.80;99.90;;;;;;2064279;28;20425;-75
2021/07/17 01:05:24;;;;;;;6.83;4.57;;;16.80;99.90;;;;;;2064603;28;20422;-74
2021/07/17 01:06:25;;;;;;;5.90;4.20;;;16.80;99.90;;;;;;2064652;28;20429;-75
2021/07/17 01:07:26;;;;;;;4.30;3.87;;;16.80;99.90;;;;;;2064673;28;20418;-75
2021/07/17 01:08:27;;;;;;;5.00;3.83;;;16.80;99.90;;;;;;2072739;28;20691;-75
2021/07/17 01:09:28;;;;;;;5.17;4.70;;;16.70;99.90;;;;;;2064685;28;20178;-75
2021/07/17 01:10:29;;;;;;;6.30;4.10;;;16.80;99.90;;;;;;2072421;28;20401;-75
2021/07/17 01:11:30;;;;;;;4.47;4.07;;;16.70;99.90;;;;;;2072670;28;20280;-74
2021/07/17 01:12:30;;;;;;;7.03;4.13;;;16.70;99.90;;;;;;2064725;28;20421;-74
2021/07/17 01:13:31;;;;;;;5.20;3.77;;;16.70;99.90;;;;;;2072605;28;20169;-75
2021/07/17 01:14:32;;;;;;;5.67;3.43;;;16.70;99.90;;;;;;2072697;28;20197;-75
2021/07/17 01:15:33;;;;;;;5.07;4.20;;;16.70;99.90;;;;;;2072611;28;20575;-75
2021/07/17 01:16:36;;;;;;;5.20;4.07;;;16.60;99.90;;;;;;2064736;28;20241;-75
2021/07/17 01:17:37;;;;;;;3.97;3.10;;;16.60;99.90;;;;;;2056863;28;20493;-75
2021/07/17 01:18:38;;;;;;;5.13;4.10;;;16.60;99.90;;;;;;2056540;28;20514;-75
2021/07/17 01:19:39;;;;;;;3.93;3.63;;;16.60;99.90;;;;;;2056582;28;20419;-74
2021/07/17 01:20:40;;;;;;;6.20;4.43;;;16.60;99.90;;;;;;2064894;28;20174;-75
2021/07/17 01:21:41;;;;;;;6.47;4.50;;;16.70;99.90;;;;;;2072528;28;20528;-75
2021/07/17 01:22:43;;;;;;;5.00;3.07;;;16.60;99.90;;;;;;2072721;28;20475;-75
2021/07/17 01:23:46;;;;;;;6.97;5.00;;;16.60;99.90;;;;;;2056507;28;20197;-75
2021/07/17 01:24:48;;;;;;;3.80;3.50;;;16.60;99.90;;;;;;2064706;28;20920;-75
2021/07/17 01:25:49;;;;;;;4.17;3.47;;;16.50;99.90;;;;;;2064276;28;20457;-75
2021/07/17 01:26:51;;;;;;;4.53;4.13;;;16.60;99.90;;;;;;2048385;28;20424;-75
2021/07/17 01:27:57;;;;;;;3.97;3.17;;;16.60;99.90;;;;;;2056595;28;20418;-75
2021/07/17 01:28:58;;;;;;;5.50;3.73;;;16.60;99.90;;;;;;2056411;28;20427;-75
2021/07/17 01:30:00;;;;;;;4.43;3.80;;;16.60;99.90;;;;;;2056318;28;20533;-75
2021/07/17 01:31:01;;;;;;;3.80;3.50;;;16.50;99.90;;;;;;2064213;28;20210;-75
2021/07/17 01:32:03;;;;;;;4.37;3.63;;;16.60;99.90;;;;;;2064428;28;20418;-75
2021/07/17 01:33:08;;;;;;;4.37;3.63;;;16.60;99.90;;;;;;2071957;28;20192;-75
2021/07/17 01:34:09;;;;;;;5.90;3.77;;;16.60;99.90;;;;;;2071793;28;20512;-75
2021/07/17 01:35:10;;;;;;;4.20;3.63;;;16.60;99.90;;;;;;2064313;28;20849;-74
2021/07/17 01:36:11;;;;;;;9.53;4.60;;;16.60;99.90;;;;;;2064955;28;20221;-75
2021/07/17 01:37:13;;;;;;;4.30;3.73;;;16.60;99.90;;;;;;2056332;28;21015;-75
2021/07/17 01:38:13;;;;;;;6.47;3.13;;;16.60;99.90;;;;;;2048180;28;20423;-75
2021/07/17 01:39:14;;;;;;;6.97;5.07;;;16.60;99.90;;;;;;2048431;29;20435;-76
2021/07/17 01:40:19;;;;;;;12.20;3.33;;;16.60;99.90;;;;;;2064088;28;20562;-75
2021/07/17 01:41:20;;;;;;;5.07;4.63;;;16.60;99.90;;;;;;2056378;28;20207;-75
2021/07/17 01:42:21;;;;;;;4.13;3.83;;;16.60;99.90;;;;;;2056848;28;20422;-75
2021/07/17 01:43:22;;;;;;;5.03;3.93;;;16.60;99.90;;;;;;2072445;28;20182;-75
2021/07/17 01:44:22;;;;;;;10.43;4.83;;;16.50;99.90;;;;;;2064334;28;20962;-75
2021/07/17 01:45:27;;;;;;;3.87;3.47;;;16.50;99.90;;;;;;2056394;28;20213;-75
2021/07/17 01:46:28;;;;;;;5.27;3.93;;;16.60;99.90;;;;;;2072240;28;20193;-75
2021/07/17 01:47:28;;;;;;;5.00;4.50;;;16.60;99.90;;;;;;2072159;28;20787;-75
2021/07/17 01:48:29;;;;;;;5.20;4.70;;;16.60;99.90;;;;;;2056185;28;20430;-75
2021/07/17 01:49:30;;;;;;;3.87;3.53;;;16.60;99.90;;;;;;2064257;28;20257;-75
2021/07/17 01:50:32;;;;;;;3.70;3.23;;;16.50;99.90;;;;;;2064063;28;20171;-76
2021/07/17 01:51:33;;;;;;;3.40;3.07;;;16.50;99.90;;;;;;2048275;28;20451;-76
2021/07/17 01:52:33;;;;;;;4.20;3.90;;;16.50;99.90;;;;;;2061042;28;20433;-76
2021/07/17 01:53:34;;;;;;;5.33;3.70;;;16.50;99.90;;;;;;2064286;28;20181;-76
2021/07/17 01:54:36;;;;;;;5.87;3.00;;;16.50;99.90;;;;;;2056212;28;20215;-76
2021/07/17 01:55:37;;;;;;;4.97;2.93;;;16.50;99.90;;;;;;2064023;28;20174;-76
2021/07/17 01:56:38;;;;;;;3.67;3.37;;;16.60;99.90;;;;;;2064399;28;20556;-76
2021/07/17 01:57:40;;;;;;;3.90;3.60;;;16.60;99.90;;;;;;2064146;28;21061;-76
2021/07/17 01:58:42;;;;;;;4.50;3.93;;;16.60;99.90;;;;;;2072462;28;20316;-76
2021/07/17 01:59:45;;;;;;;11.63;5.10;;;16.60;99.90;;;;;;2063882;28;20426;-75
2021/07/17 02:00:46;;;;;;;6.60;4.90;;;16.50;99.90;;;;;;2056296;28;20427;-75
2021/07/17 02:01:47;;;;;;;3.77;3.47;;;16.50;99.90;;;;;;2072206;28;20473;-76
2021/07/17 02:02:48;;;;;;;8.20;3.87;;;16.50;99.90;;;;;;2072358;28;20264;-75
2021/07/17 02:03:50;;;;;;;6.00;3.83;;;16.50;99.90;;;;;;2056068;28;20187;-75
2021/07/17 02:04:51;;;;;;;9.70;4.67;;;16.50;99.90;;;;;;2064270;28;20429;-75
2021/07/17 02:05:52;;;;;;;4.87;3.60;;;16.50;99.90;;;;;;2072189;28;20425;-76
2021/07/17 02:06:52;;;;;;;3.80;3.47;;;16.50;99.90;;;;;;2064832;28;20174;-76
2021/07/17 02:07:54;;;;;;;6.23;3.33;;;16.50;99.90;;;;;;2072340;28;20197;-76
2021/07/17 02:08:55;;;;;;;4.63;3.37;;;16.50;99.90;;;;;;2072193;28;20557;-75
2021/07/17 02:09:55;;;;;;;3.63;3.27;;;16.50;99.90;;;;;;2064055;28;20524;-76
2021/07/17 02:10:56;;;;;;;5.43;4.20;;;16.40;99.90;;;;;;2064019;28;20584;-75
2021/07/17 02:11:57;;;;;;;5.13;3.37;;;16.40;99.90;;;;;;2072238;28;20198;-76
2021/07/17 02:13:06;;;;;;;10.50;4.37;;;16.30;99.90;;;;;;2072404;28;20235;-77
2021/07/17 02:14:07;;;;;;;5.57;4.60;;;16.30;99.90;;;;;;2064315;28;20249;-75
2021/07/17 02:15:10;;;;;;;5.40;4.20;;;16.30;99.90;;;;;;2064791;28;20547;-75
2021/07/17 02:16:11;;;;;;;4.83;3.63;;;16.20;99.90;;;;;;2072238;28;20214;-75
2021/07/17 02:17:12;;;;;;;5.53;4.40;;;16.10;99.90;;;;;;2072366;28;20428;-75
2021/07/17 02:18:16;;;;;;;5.83;3.83;;;16.20;99.90;;;;;;2056067;28;20175;-75
2021/07/17 02:19:22;;;;;;;5.20;4.60;;;16.20;99.90;;;;;;2064471;28;20849;-75
2021/07/17 02:20:23;;;;;;;7.27;5.30;;;16.30;99.90;;;;;;2071507;28;20427;-75
2021/07/17 02:21:23;;;;;;;5.77;3.97;;;16.30;99.90;;;;;;2064058;28;20539;-75
2021/07/17 02:22:24;;;;;;;3.73;3.40;;;16.30;99.90;;;;;;2072324;28;20930;-74
2021/07/17 02:23:25;;;;;;;5.87;5.07;;;16.20;99.90;;;;;;2063990;28;20666;-75
2021/07/17 02:24:26;;;;;;;6.13;4.67;;;16.20;99.90;;;;;;2063953;28;20716;-75
2021/07/17 02:25:27;;;;;;;4.40;4.00;;;16.20;99.90;;;;;;2072097;28;20424;-75
2021/07/17 02:26:27;;;;;;;6.37;4.73;;;16.20;99.90;;;;;;2064047;28;20546;-75
2021/07/17 02:27:28;;;;;;;3.70;3.40;;;16.20;99.90;;;;;;2064776;28;20217;-75
2021/07/17 02:28:29;;;;;;;4.03;3.63;;;16.20;99.90;;;;;;2064081;28;20857;-75
2021/07/17 02:29:29;;;;;;;4.87;4.43;;;16.20;99.90;;;;;;2064112;28;20193;-75
2021/07/17 02:30:30;;;;;;;6.63;4.53;;;16.20;99.90;;;;;;2063965;28;20183;-76
2021/07/17 02:31:31;;;;;;;5.37;4.57;;;16.20;99.90;;;;;;2064038;28;20203;-75
2021/07/17 02:32:32;;;;;;;4.77;4.30;;;16.20;99.90;;;;;;2056089;28;20423;-76
2021/07/17 02:33:33;;;;;;;5.87;5.17;;;16.20;99.90;;;;;;2072321;28;20263;-75
2021/07/17 02:34:33;;;;;;;5.77;4.63;;;16.20;99.90;;;;;;2071967;28;20185;-75
2021/07/17 02:35:34;;;;;;;5.27;4.77;;;16.20;99.90;;;;;;2072194;28;20967;-76
2021/07/17 02:36:37;;;;;;;18.27;4.60;;;16.20;99.90;;;;;;2072225;28;20261;-75
2021/07/17 02:37:38;;;;;;;7.77;4.10;;;16.10;99.90;;;;;;2056223;28;20171;-75
2021/07/17 02:38:38;;;;;;;6.00;4.17;;;16.10;99.90;;;;;;2056121;28;20497;-75
2021/07/17 02:39:39;;;;;;;7.23;4.37;;;16.10;99.90;;;;;;2056190;28;20418;-75
2021/07/17 02:40:40;;;;;;;6.23;4.73;;;16.20;99.90;;;;;;2064417;28;20178;-76
2021/07/17 02:41:41;;;;;;;4.60;3.97;;;16.10;99.90;;;;;;2064200;28;20214;-75
2021/07/17 02:42:42;;;;;;;6.10;4.37;;;16.10;99.90;;;;;;2072076;28;20808;-76
2021/07/17 02:43:42;;;;;;;6.80;5.50;;;16.20;99.90;;;;;;2072239;28;20173;-76
2021/07/17 02:44:43;;;;;;;7.80;4.67;;;16.20;99.90;;;;;;2072683;28;20189;-75
2021/07/17 02:45:44;;;;;;;6.60;3.80;;;16.20;99.90;;;;;;2073501;28;20686;-76
2021/07/17 02:46:44;;;;;;;4.97;4.27;;;16.30;99.90;;;;;;2073747;28;20545;-75
2021/07/17 02:47:45;;;;;;;3.87;3.57;;;16.20;99.90;;;;;;2073688;28;20415;-76
2021/07/17 02:48:46;;;;;;;6.30;4.30;;;16.30;99.90;;;;;;2057451;28;20221;-75
2021/07/17 02:49:46;;;;;;;7.13;3.57;;;16.30;99.90;;;;;;2065542;28;20261;-75
2021/07/17 02:50:47;;;;;;;5.07;4.67;;;16.30;99.90;;;;;;2057257;28;20624;-76
2021/07/17 02:51:48;;;;;;;8.27;4.43;;;16.30;99.90;;;;;;2049343;28;20278;-76
2021/07/17 02:52:49;;;;;;;4.53;3.73;;;16.30;99.90;;;;;;2068466;28;20206;-76
2021/07/17 02:53:49;;;;;;;6.83;4.10;;;16.30;99.90;;;;;;2057547;28;20207;-76
2021/07/17 02:54:50;;;;;;;5.07;4.57;;;16.30;99.90;;;;;;2057519;28;20433;-76
2021/07/17 02:55:51;;;;;;;6.23;4.60;;;16.30;99.90;;;;;;2057574;28;20686;-76
2021/07/17 02:56:52;;;;;;;4.50;4.10;;;16.30;99.90;;;;;;2049370;28;20213;-76
2021/07/17 02:57:52;;;;;;;4.17;3.77;;;16.30;99.90;;;;;;2065682;28;20621;-75
2021/07/17 02:58:53;;;;;;;6.07;4.77;;;16.40;99.90;;;;;;2057597;28;20186;-75
2021/07/17 02:59:53;;;;;;;8.07;5.37;;;16.20;99.90;;;;;;2057635;28;20190;-75
2021/07/17 03:00:54;;;;;;;4.60;3.50;;;16.30;99.90;;;;;;2057176;28;20186;-75
2021/07/17 03:01:55;;;;;;;3.87;3.50;;;16.20;99.90;;;;;;2049326;28;20294;-75
2021/07/17 03:02:56;;;;;;;4.83;4.37;;;16.20;99.90;;;;;;2049413;28;20258;-75
2021/07/17 03:03:56;;;;;;;4.30;3.57;;;16.20;99.90;;;;;;2057370;28;20206;-75
2021/07/17 03:04:57;;;;;;;7.13;4.87;;;16.20;99.90;;;;;;2065275;28;20193;-75
2021/07/17 03:05:58;;;;;;;8.73;3.93;;;16.20;99.90;;;;;;2065470;28;20183;-75
2021/07/17 03:06:58;;;;;;;7.13;4.90;;;16.20;99.90;;;;;;2065472;28;20233;-75
2021/07/17 03:07:59;;;;;;;3.67;2.97;;;16.10;99.90;;;;;;2057294;28;20266;-75
2021/07/17 03:09:03;;;;;;;4.53;4.10;;;16.20;99.90;;;;;;2058007;28;20522;-75
2021/07/17 03:10:05;;;;;;;4.13;3.83;;;16.20;99.90;;;;;;2049303;29;20187;-75
2021/07/17 03:11:06;;;;;;;5.57;4.23;;;16.20;99.90;;;;;;2049871;28;20443;-75
2021/07/17 03:12:07;;;;;;;5.30;4.57;;;16.20;99.90;;;;;;2065521;28;20448;-75
2021/07/17 03:13:08;;;;;;;5.63;3.93;;;16.20;99.90;;;;;;2057308;28;20179;-75
2021/07/17 03:14:09;;;;;;;8.87;5.23;;;16.20;99.90;;;;;;2057449;28;20461;-75
2021/07/17 03:15:11;;;;;;;5.63;4.23;;;16.20;99.90;;;;;;2057226;28;20836;-75
2021/07/17 03:16:12;;;;;;;4.97;4.10;;;16.30;99.90;;;;;;2057295;28;20198;-75
2021/07/17 03:17:13;;;;;;;3.90;3.47;;;16.20;99.90;;;;;;2065411;28;20421;-75
2021/07/17 03:18:14;;;;;;;3.57;3.27;;;16.20;99.90;;;;;;2065303;28;20175;-75
2021/07/17 03:19:14;;;;;;;5.70;4.90;;;16.30;99.90;;;;;;2057318;28;20425;-75
2021/07/17 03:20:15;;;;;;;7.00;4.67;;;16.30;99.90;;;;;;2049093;28;20180;-75
2021/07/17 03:21:16;;;;;;;4.33;3.70;;;16.30;99.90;;;;;;2057299;28;20213;-75
2021/07/17 03:22:16;;;;;;;5.80;4.60;;;16.30;99.90;;;;;;2065309;28;20229;-75
2021/07/17 03:23:17;;;;;;;5.03;4.17;;;16.30;99.90;;;;;;2065306;28;20179;-76
2021/07/17 03:24:18;;;;;;;5.13;3.57;;;16.30;99.90;;;;;;2065379;28;20185;-75
2021/07/17 03:25:19;;;;;;;5.17;3.87;;;16.30;99.90;;;;;;2065405;28;20190;-75
2021/07/17 03:26:19;;;;;;;5.37;4.07;;;16.30;99.90;;;;;;2057725;28;20241;-75
2021/07/17 03:27:20;;;;;;;5.47;4.97;;;16.20;99.90;;;;;;2065238;28;20193;-75
2021/07/17 03:28:21;;;;;;;4.93;3.30;;;16.20;99.90;;;;;;2065304;28;20265;-75
2021/07/17 03:29:21;;;;;;;6.90;4.87;;;16.30;99.90;;;;;;2065216;28;20533;-75
2021/07/17 03:30:22;;;;;;;4.03;3.63;;;16.20;99.90;;;;;;2057033;28;20242;-75
2021/07/17 03:31:31;;;;;;;5.83;4.40;;;16.30;99.90;;;;;;2057220;28;20214;-75
2021/07/17 03:32:33;;;;;;;5.77;5.17;;;16.20;99.90;;;;;;2055134;28;20190;-75
2021/07/17 03:33:34;;;;;;;4.93;3.50;;;16.10;99.90;;;;;;2033770;29;20517;-74
2021/07/17 03:34:34;;;;;;;6.27;3.90;;;16.10;99.90;;;;;;2057087;28;21133;-75
2021/07/17 03:35:35;;;;;;;4.20;3.40;;;16.10;99.90;;;;;;2065231;28;20461;-75
2021/07/17 03:36:36;;;;;;;4.33;3.77;;;16.10;99.90;;;;;;2065281;28;20175;-75
2021/07/17 03:37:37;;;;;;;5.67;4.50;;;16.10;99.90;;;;;;2057265;28;20175;-74
2021/07/17 03:38:38;;;;;;;5.37;4.33;;;16.10;99.90;;;;;;2057134;28;20818;-75
2021/07/17 03:39:38;;;;;;;7.17;5.47;;;16.10;99.90;;;;;;2065150;28;20249;-75
2021/07/17 03:40:39;;;;;;;4.77;4.00;;;16.20;99.90;;;;;;2057606;28;20634;-75
2021/07/17 03:41:40;;;;;;;3.60;3.30;;;16.20;99.90;;;;;;2065184;28;20202;-75
2021/07/17 03:42:40;;;;;;;5.77;4.13;;;16.30;99.90;;;;;;2057257;28;20178;-75
2021/07/17 03:43:41;;;;;;;8.17;4.00;;;16.30;99.90;;;;;;2041384;29;20176;-75
2021/07/17 03:44:42;;;;;;;4.77;4.27;;;16.30;99.90;;;;;;2057122;28;20258;-75
2021/07/17 03:45:43;;;;;;;4.57;4.17;;;16.40;99.90;;;;;;2065179;28;20324;-75
2021/07/17 03:46:43;;;;;;;4.23;3.77;;;16.30;99.90;;;;;;2065157;28;20646;-75
2021/07/17 03:47:44;;;;;;;4.37;3.00;;;16.30;99.90;;;;;;2059737;28;20221;-75
2021/07/17 03:48:45;;;;;;;4.80;3.27;;;16.30;99.90;;;;;;2049081;28;20214;-75
2021/07/17 03:49:46;;;;;;;3.67;2.80;;;16.30;99.90;;;;;;2057074;28;20187;-75
2021/07/17 03:50:46;;;;;;;5.03;4.60;;;16.30;99.90;;;;;;2048948;29;20195;-75
2021/07/17 03:51:47;;;;;;;4.57;3.30;;;16.30;99.90;;;;;;2049069;29;20710;-75
2021/07/17 03:52:48;;;;;;;5.57;2.87;;;16.40;99.90;;;;;;2049090;28;20188;-75
2021/07/17 03:53:48;;;;;;;4.20;3.57;;;16.50;99.90;;;;;;2049058;28;20188;-75
2021/07/17 03:54:49;;;;;;;6.83;4.13;;;16.40;99.90;;;;;;2048907;28;20176;-75
2021/07/17 03:55:50;;;;;;;4.30;3.83;;;16.40;99.90;;;;;;2048625;28;20247;-75
2021/07/17 03:56:50;;;;;;;4.17;3.60;;;16.50;99.90;;;;;;2056296;28;20182;-75
2021/07/17 03:57:51;;;;;;;6.53;4.10;;;16.40;99.90;;;;;;2056881;28;20175;-75
2021/07/17 03:58:52;;;;;;;4.07;3.70;;;16.40;99.90;;;;;;2056981;28;20654;-75
2021/07/17 03:59:52;;;;;;;6.13;3.83;;;16.30;99.90;;;;;;2064985;28;20746;-75
2021/07/17 04:00:53;;;;;;;11.67;3.90;;;16.40;99.90;;;;;;2056526;28;20270;-75
2021/07/17 04:01:54;;;;;;;4.13;3.73;;;16.40;99.90;;;;;;2040725;29;20329;-75
2021/07/17 04:02:54;;;;;;;3.60;3.30;;;16.30;99.90;;;;;;2033149;29;20209;-75
2021/07/17 04:03:55;;;;;;;5.77;3.73;;;16.30;99.90;;;;;;2041000;29;20172;-75
2021/07/17 04:04:57;;;;;;;6.77;4.63;;;16.20;99.90;;;;;;2048868;29;20238;-75
2021/07/17 04:05:58;;;;;;;5.87;4.03;;;16.20;99.90;;;;;;2048978;28;20391;-75
2021/07/17 04:06:59;;;;;;;5.67;3.67;;;16.20;99.90;;;;;;2048870;29;20432;-75
2021/07/17 04:08:00;;;;;;;4.83;4.43;;;16.20;99.90;;;;;;2048966;28;20293;-75
2021/07/17 04:09:02;;;;;;;6.40;4.87;;;16.10;99.90;;;;;;2056798;28;20442;-75
2021/07/17 04:10:06;;;;;;;5.07;4.53;;;16.10;99.90;;;;;;2056697;28;20190;-75
2021/07/17 04:11:06;;;;;;;4.17;3.77;;;16.10;99.90;;;;;;2056607;28;20589;-75
2021/07/17 04:12:07;;;;;;;5.20;3.67;;;16.20;99.90;;;;;;2048727;28;20453;-75
2021/07/17 04:13:08;;;;;;;4.20;3.70;;;16.20;99.90;;;;;;2041105;28;20541;-75
2021/07/17 04:14:10;;;;;;;6.60;4.07;;;16.30;99.90;;;;;;2056833;28;20437;-75
2021/07/17 04:15:12;;;;;;;6.17;3.93;;;16.30;99.90;;;;;;2056731;28;20203;-75
2021/07/17 04:16:12;;;;;;;4.00;3.20;;;16.20;99.90;;;;;;2056748;28;20470;-75
2021/07/17 04:17:13;;;;;;;4.90;4.50;;;16.20;99.90;;;;;;2048885;29;20442;-75
2021/07/17 04:18:14;;;;;;;5.83;3.97;;;16.20;99.90;;;;;;2048898;29;20314;-75
2021/07/17 04:19:15;;;;;;;7.30;5.20;;;16.20;99.90;;;;;;2056888;28;20271;-75
2021/07/17 04:20:16;;;;;;;8.20;4.60;;;16.20;99.90;;;;;;2048697;28;20260;-75
2021/07/17 04:21:16;;;;;;;6.87;4.70;;;16.20;99.90;;;;;;2048822;28;20183;-75
2021/07/17 04:22:18;;;;;;;6.37;4.17;;;16.20;99.90;;;;;;2048864;29;20434;-75
2021/07/17 04:23:19;;;;;;;6.90;3.93;;;16.20;99.90;;;;;;2049095;28;20172;-75
2021/07/17 04:24:20;;;;;;;6.30;5.17;;;16.30;99.90;;;;;;2048654;29;20856;-75
2021/07/17 04:25:20;;;;;;;6.83;4.87;;;16.30;99.90;;;;;;2048911;29;20239;-75
2021/07/17 04:26:21;;;;;;;8.30;4.33;;;16.40;99.90;;;;;;2048805;28;20218;-75
2021/07/17 04:27:22;;;;;;;6.17;4.37;;;16.30;99.90;;;;;;2048803;29;20183;-75
2021/07/17 04:28:22;;;;;;;3.63;3.23;;;16.30;99.90;;;;;;2049064;28;20222;-75
2021/07/17 04:29:23;;;;;;;10.10;4.80;;;16.30;99.90;;;;;;2049406;28;20184;-74
2021/07/17 04:30:24;;;;;;;8.40;4.03;;;16.30;99.90;;;;;;2048547;28;20670;-74
2021/07/17 04:31:25;;;;;;;7.37;5.33;;;16.30;99.90;;;;;;2048712;28;20277;-74
2021/07/17 04:32:25;;;;;;;7.30;4.63;;;16.20;99.90;;;;;;2056543;28;20786;-74
2021/07/17 04:33:26;;;;;;;9.20;4.33;;;16.30;99.90;;;;;;2064754;28;20664;-75
2021/07/17 04:34:27;;;;;;;4.23;3.17;;;16.30;99.90;;;;;;2056758;28;20190;-74
2021/07/17 04:35:28;;;;;;;6.63;4.50;;;16.30;99.90;;;;;;2048629;29;20219;-74
2021/07/17 04:36:32;;;;;;;4.67;3.67;;;16.30;99.90;;;;;;2048673;28;20180;-74
2021/07/17 04:37:33;;;;;;;7.70;3.80;;;16.40;99.90;;;;;;2064523;28;20557;-74
2021/07/17 04:38:34;;;;;;;5.63;4.87;;;16.40;99.90;;;;;;2064624;28;20814;-74
2021/07/17 04:39:35;;;;;;;4.47;3.90;;;16.40;99.90;;;;;;2057132;28;20459;-74
2021/07/17 04:40:35;;;;;;;5.50;4.40;;;16.40;99.90;;;;;;2056460;28;20601;-74
2021/07/17 04:41:36;;;;;;;4.77;4.33;;;16.50;99.90;;;;;;2056587;28;20195;-74
2021/07/17 04:42:37;;;;;;;6.87;5.37;;;16.50;99.90;;;;;;2056704;28;20175;-75
2021/07/17 04:43:37;;;;;;;5.20;4.70;;;16.50;99.90;;;;;;2056585;28;20175;-74
2021/07/17 04:44:38;;;;;;;6.63;3.90;;;16.50;99.90;;;;;;2057332;28;20646;-75
2021/07/17 04:45:39;;;;;;;4.70;4.30;;;16.50;99.90;;;;;;2057158;28;20547;-75
2021/07/17 04:46:39;;;;;;;8.80;4.33;;;16.50;99.90;;;;;;2056486;28;20241;-74
2021/07/17 04:47:40;;;;;;;7.83;3.67;;;16.50;99.90;;;;;;2056591;28;20175;-74
2021/07/17 04:48:41;;;;;;;6.20;4.23;;;16.50;99.90;;;;;;2064599;28;20234;-75
2021/07/17 04:49:41;;;;;;;4.37;3.93;;;16.50;99.90;;;;;;2064518;28;20204;-75
2021/07/17 04:50:42;;;;;;;4.53;4.10;;;16.50;99.90;;;;;;2056441;28;20227;-74
2021/07/17 04:51:43;;;;;;;10.30;5.40;;;16.50;99.90;;;;;;2056438;28;20809;-75
2021/07/17 04:52:44;;;;;;;4.50;4.10;;;16.50;99.90;;;;;;2064584;28;20177;-74
2021/07/17 04:53:44;;;;;;;5.33;4.57;;;16.50;99.90;;;;;;2056469;28;20757;-74
2021/07/17 04:54:45;;;;;;;4.60;3.33;;;16.50;99.90;;;;;;2048482;29;20666;-74
2021/07/17 04:55:46;;;;;;;5.53;4.60;;;16.40;99.90;;;;;;2050601;28;20195;-75
2021/07/17 04:56:46;;;;;;;8.13;4.33;;;16.40;99.90;;;;;;2060247;28;20605;-75
2021/07/17 04:57:47;;;;;;;4.97;4.47;;;16.40;99.90;;;;;;2064236;28;20680;-75
2021/07/17 04:58:48;;;;;;;5.00;4.60;;;16.40;99.90;;;;;;2056347;28;20218;-75
2021/07/17 04:59:49;;;;;;;4.37;3.97;;;16.50;99.90;;;;;;2064113;28;20253;-74
2021/07/17 05:00:49;;;;;;;5.93;4.57;;;16.50;99.90;;;;;;2063882;28;20179;-75
2021/07/17 05:01:50;;;;;;;5.07;4.57;;;16.50;99.90;;;;;;2056178;28;20194;-75
2021/07/17 05:02:54;;;;;;;5.03;4.53;;;16.50;99.90;;;;;;2056398;28;20238;-75
2021/07/17 05:03:55;;;;;;;5.97;3.93;;;16.50;99.90;;;;;;2048241;28;20207;-75
2021/07/17 05:04:56;;;;;;;4.17;3.83;;;16.50;99.90;;;;;;2048368;29;20871;-74
2021/07/17 05:05:56;;;;;;;3.80;3.50;;;16.50;99.90;;;;;;2056767;28;20180;-75
2021/07/17 05:06:57;;;;;;;2.87;2.67;;;16.40;99.90;;;;;;2056970;28;20179;-75
2021/07/17 05:07:58;;;;;;;4.63;3.53;;;16.40;99.90;;;;;;2063993;28;20202;-75
2021/07/17 05:08:58;;;;;;;5.53;4.33;;;16.40;99.90;;;;;;2064329;28;20183;-75
2021/07/17 05:09:59;;;;;;;4.90;3.93;;;16.40;99.90;;;;;;2056523;28;20175;-75
2021/07/17 05:10:59;;;;;;;3.67;3.37;;;16.30;99.90;;;;;;2055803;28;20746;-75
2021/07/17 05:12:00;;;;;;;6.13;4.10;;;16.30;99.90;;;;;;2064263;28;20217;-74
2021/07/17 05:13:15;;;;;;;4.63;3.83;;;16.40;99.90;;;;;;2064249;28;20175;-74
2021/07/17 05:14:16;;;;;;;4.83;3.77;;;16.40;99.90;;;;;;2048318;28;20163;-75
2021/07/17 05:15:17;;;;;;;2.50;2.30;;;16.40;99.90;;;;;;2056197;28;20549;-74
2021/07/17 05:16:18;;;;;;;5.60;3.87;;;16.40;99.90;;;;;;2056021;28;20686;-74
2021/07/17 05:17:19;;;;;;;3.93;3.43;;;16.40;99.90;;;;;;2048188;28;20552;-76
2021/07/17 05:18:21;;;;;;;3.03;2.73;;;16.50;99.90;;;;;;2064205;28;20244;-75